createdAt,value
2019-06-15T07:58:24.247Z,98111.70
2019-06-15T08:00:25.635Z,98111.70
2019-06-15T08:02:37.298Z,98234.52
2019-06-15T08:04:48.129Z,98239.48
2019-06-15T08:06:59.063Z,98236.47
2019-06-15T08:09:09.892Z,98244.05
2019-06-15T08:11:20.748Z,98237.70
2019-06-15T08:13:31.596Z,98241.84
2019-06-15T08:15:42.448Z,98246.84
2019-06-15T08:17:53.269Z,98250.06
2019-06-15T08:20:09.373Z,98250.96
2019-06-15T08:22:20.222Z,98243.89
2019-06-15T08:24:31.049Z,98257.42
2019-06-15T08:26:42.781Z,98259.77
2019-06-15T08:28:53.654Z,98261.31
2019-06-15T08:31:06.707Z,98264.53
2019-06-15T08:33:17.546Z,98266.62
2019-06-15T08:35:28.407Z,98264.72
2019-06-15T08:37:39.434Z,98265.94
2019-06-15T08:39:50.376Z,98288.14
2019-06-15T08:42:01.210Z,98278.42
2019-06-15T08:44:12.024Z,98287.88
2019-06-15T08:46:23.081Z,98286.64
2019-06-15T08:48:36.895Z,98287.34
2019-06-15T08:50:47.736Z,98277.56
2019-06-15T08:52:58.650Z,98291.87
2019-06-15T08:55:09.461Z,98293.08
2019-06-15T08:57:20.302Z,98293.70
2019-06-15T08:59:31.132Z,98308.11
2019-06-15T09:01:41.974Z,98297.81
2019-06-15T09:03:52.797Z,98305.30
2019-06-15T09:06:03.718Z,98300.69
2019-06-15T09:08:14.555Z,98301.47
2019-06-15T09:10:25.381Z,98297.23
2019-06-15T09:12:38.252Z,98307.25
2019-06-15T09:14:49.076Z,98304.14
2019-06-15T09:17:00.023Z,98304.74
2019-06-15T09:19:10.865Z,98303.22
2019-06-15T09:21:21.788Z,98301.67
2019-06-15T09:23:32.645Z,98307.05
2019-06-15T09:25:43.563Z,98303.41
2019-06-15T09:27:54.432Z,98309.41
2019-06-15T09:30:06.071Z,98311.53
2019-06-15T09:32:16.957Z,98314.90
2019-06-15T09:34:27.799Z,98313.72
2019-06-15T09:36:38.600Z,98309.80
2019-06-15T09:38:49.734Z,98310.59
2019-06-15T09:41:00.608Z,98311.66
2019-06-15T09:43:11.468Z,98311.23
2019-06-15T09:45:22.475Z,98316.25
2019-06-15T09:47:33.340Z,98310.88
2019-06-15T09:49:44.202Z,98303.89
2019-06-15T09:51:55.038Z,98312.47
2019-06-15T09:54:05.958Z,98311.39
2019-06-15T09:56:16.876Z,98319.16
2019-06-15T09:58:27.721Z,98312.70
2019-06-15T10:00:38.545Z,98316.11
2019-06-15T10:02:49.376Z,98326.26
2019-06-15T10:05:00.222Z,98329.42
2019-06-15T10:07:11.053Z,98337.15
2019-06-15T10:09:21.908Z,98337.87
2019-06-15T10:11:32.725Z,98337.39
2019-06-15T10:13:43.598Z,98348.81
2019-06-15T10:15:54.455Z,98347.91
2019-06-15T10:18:05.403Z,98346.47
2019-06-15T10:20:16.455Z,98343.97
2019-06-15T10:22:27.285Z,98350.98
2019-06-15T10:24:38.123Z,98354.76
2019-06-15T10:26:49.122Z,98347.80
2019-06-15T10:29:00.084Z,98346.29
2019-06-15T10:31:11.067Z,98352.63
2019-06-15T10:33:21.874Z,98351.64
2019-06-15T10:35:32.721Z,98354.94
2019-06-15T10:37:43.553Z,98346.98
2019-06-15T10:39:54.500Z,98351.19
2019-06-15T10:42:05.546Z,98349.55
2019-06-15T10:44:16.534Z,98356.38
2019-06-15T10:46:27.372Z,98356.52
2019-06-15T10:48:38.210Z,98363.31
2019-06-15T10:50:49.070Z,98357.78
2019-06-15T10:52:59.965Z,98363.31
2019-06-15T10:55:11.102Z,98359.25
2019-06-15T10:57:21.920Z,98363.69
2019-06-15T10:59:32.983Z,98370.16
2019-06-15T11:01:43.919Z,98367.41
2019-06-15T11:03:54.821Z,98368.77
2019-06-15T11:06:05.631Z,98368.95
2019-06-15T11:08:16.487Z,98365.38
2019-06-15T11:10:54.073Z,98362.19
2019-06-15T11:13:05.016Z,98362.21
2019-06-15T11:15:15.980Z,98362.21
2019-06-15T11:17:26.919Z,98359.30
2019-06-15T11:19:37.843Z,98363.03
2019-06-15T11:21:48.679Z,98363.31
2019-06-15T11:23:59.701Z,98364.98
2019-06-15T11:26:10.566Z,98357.99
2019-06-15T11:28:21.410Z,98368.73
2019-06-15T11:30:32.289Z,98369.55
2019-06-15T11:32:43.115Z,98372.69
2019-06-15T11:34:53.995Z,98380.00
2019-06-15T11:37:04.823Z,98376.87
2019-06-15T11:39:15.893Z,98372.11
2019-06-15T11:41:26.829Z,98382.12
2019-06-15T11:43:37.758Z,98386.28
2019-06-15T11:45:48.675Z,98375.78
2019-06-15T11:47:59.538Z,98382.03
2019-06-15T11:50:12.028Z,98393.30
2019-06-15T11:52:23.097Z,98386.80
2019-06-15T11:54:34.025Z,98383.94
2019-06-15T11:56:44.859Z,98392.97
2019-06-15T11:58:55.737Z,98390.23
2019-06-15T12:01:07.083Z,98390.40
2019-06-15T12:03:17.938Z,98390.72
2019-06-15T12:05:29.367Z,98387.86
2019-06-15T12:07:40.320Z,98392.17
2019-06-15T12:09:51.171Z,98393.97
2019-06-15T12:12:02.148Z,98389.15
2019-06-15T12:14:12.976Z,98390.47
2019-06-15T12:16:23.815Z,98382.31
2019-06-15T12:18:34.781Z,98386.89
2019-06-15T12:20:45.636Z,98383.14
2019-06-15T12:22:56.491Z,98387.39
2019-06-15T12:25:07.841Z,98381.06
2019-06-15T12:27:18.694Z,98378.31
2019-06-15T12:29:29.574Z,98384.34
2019-06-15T12:31:40.447Z,98387.11
2019-06-15T12:33:51.368Z,98384.18
2019-06-15T12:36:02.293Z,98381.61
2019-06-15T12:38:13.193Z,98379.03
2019-06-15T12:40:24.132Z,98375.44
2019-06-15T12:42:34.995Z,98377.36
2019-06-15T12:44:45.826Z,98376.74
2019-06-15T12:46:56.662Z,98380.64
2019-06-15T12:49:07.517Z,98387.53
2019-06-15T12:51:18.388Z,98385.03
2019-06-15T12:53:29.243Z,98382.46
2019-06-15T12:55:40.090Z,98395.09
2019-06-15T12:57:52.975Z,98389.06
2019-06-15T13:00:07.609Z,98380.79
2019-06-15T13:02:18.456Z,98380.79
2019-06-15T13:04:29.294Z,98383.78
2019-06-15T13:06:42.074Z,98383.10
2019-06-15T13:08:52.940Z,98385.78
2019-06-15T13:11:03.809Z,98385.52
2019-06-15T13:13:14.869Z,98377.76
2019-06-15T13:15:25.732Z,98383.28
2019-06-15T13:17:36.555Z,98393.52
2019-06-15T13:19:47.409Z,98387.91
2019-06-15T13:21:58.270Z,98385.14
2019-06-15T13:24:09.094Z,98381.38
2019-06-15T13:26:19.940Z,98389.66
2019-06-15T13:28:30.887Z,98390.88
2019-06-15T13:30:41.786Z,98382.09
2019-06-15T13:32:52.624Z,98387.14
2019-06-15T13:35:05.584Z,98387.65
2019-06-15T13:37:16.453Z,98387.45
2019-06-15T13:39:27.489Z,98387.09
2019-06-15T13:41:38.357Z,98385.65
2019-06-15T13:43:49.183Z,98383.03
2019-06-15T13:46:00.057Z,98388.39
2019-06-15T13:48:11.775Z,98389.56
2019-06-15T13:50:22.776Z,98382.56
2019-06-15T13:52:33.681Z,98388.00
2019-06-15T13:54:44.642Z,98392.85
2019-06-15T13:56:55.577Z,98385.03
2019-06-15T13:59:06.447Z,98389.84
2019-06-15T14:01:17.246Z,98387.53
2019-06-15T14:03:28.206Z,98388.08
2019-06-15T14:05:39.363Z,98387.80
2019-06-15T14:07:50.286Z,98390.31
2019-06-15T14:10:01.636Z,98388.44
2019-06-15T14:12:12.593Z,98385.66
2019-06-15T14:14:23.399Z,98383.39
2019-06-15T14:16:34.280Z,98381.47
2019-06-15T14:18:45.102Z,98382.28
2019-06-15T14:20:56.065Z,98377.09
2019-06-15T14:23:06.993Z,98385.10
2019-06-15T14:25:17.820Z,98388.94
2019-06-15T14:27:28.674Z,98381.83
2019-06-15T14:29:39.607Z,98379.91
2019-06-15T14:31:50.842Z,98385.42
2019-06-15T14:34:01.738Z,98386.95
2019-06-15T14:36:14.772Z,98390.97
2019-06-15T14:38:25.661Z,98384.92
2019-06-15T14:40:36.578Z,98383.63
2019-06-15T14:42:49.341Z,98386.75
2019-06-15T14:45:00.160Z,98388.62
2019-06-15T14:47:10.997Z,98386.63
2019-06-15T14:49:21.831Z,98387.58
2019-06-15T14:51:32.668Z,98384.64
2019-06-15T14:53:49.851Z,98394.56
2019-06-15T14:55:56.605Z,98388.86
2019-06-15T14:58:07.534Z,98388.47
2019-06-15T15:00:18.857Z,98391.90
2019-06-15T15:02:29.696Z,98385.45
2019-06-15T15:04:40.642Z,98381.70
2019-06-15T15:06:51.475Z,98379.56
2019-06-15T15:09:03.707Z,98379.76
2019-06-15T15:11:16.924Z,98374.28
2019-06-15T15:13:27.271Z,98369.48
2019-06-15T15:15:38.196Z,98371.37
2019-06-15T15:17:49.230Z,98367.22
2019-06-15T15:20:03.773Z,98364.88
2019-06-15T15:22:12.820Z,98360.58
2019-06-15T15:24:23.800Z,98350.81
2019-06-15T15:26:36.915Z,98358.78
2019-06-15T15:28:47.616Z,98353.42
2019-06-15T15:30:58.478Z,98355.77
2019-06-15T15:33:09.422Z,98355.81
2019-06-15T15:35:20.312Z,98350.03
2019-06-15T15:37:31.142Z,98343.94
2019-06-15T15:39:41.998Z,98350.30
2019-06-15T15:41:52.836Z,98349.44
2019-06-15T15:44:03.791Z,98362.75
2019-06-15T15:46:16.547Z,98356.66
2019-06-15T15:48:27.351Z,98359.97
2019-06-15T15:50:38.277Z,98354.98
2019-06-15T15:52:49.310Z,98350.37
2019-06-15T15:55:00.166Z,98349.39
2019-06-15T15:57:10.987Z,98347.17
2019-06-15T15:59:21.836Z,98359.63
2019-06-15T16:01:32.707Z,98348.88
2019-06-15T16:03:43.538Z,98357.00
2019-06-15T16:05:56.103Z,98351.53
2019-06-15T16:08:07.114Z,98355.17
2019-06-15T16:10:18.053Z,98351.31
2019-06-15T16:12:28.995Z,98351.00
2019-06-15T16:14:39.845Z,98350.24
2019-06-15T16:16:50.812Z,98347.11
2019-06-15T16:19:01.650Z,98351.95
2019-06-15T16:21:12.589Z,98355.83
2019-06-15T16:23:23.436Z,98353.17
2019-06-15T16:25:37.009Z,98361.80
2019-06-15T16:27:48.934Z,98351.31
2019-06-15T16:29:59.894Z,98352.14
2019-06-15T16:32:10.750Z,98352.10
2019-06-15T16:34:21.607Z,98342.18
2019-06-15T16:36:32.478Z,98342.47
2019-06-15T16:38:43.310Z,98341.67
2019-06-15T16:40:56.126Z,98339.52
2019-06-15T16:43:07.637Z,98346.41
2019-06-15T16:45:18.488Z,98353.55
2019-06-15T16:47:29.327Z,98351.26
2019-06-15T16:49:40.141Z,98348.34
2019-06-15T16:51:51.116Z,98343.05
2019-06-15T16:54:02.070Z,98341.72
2019-06-15T16:56:12.892Z,98333.99
2019-06-15T16:58:26.342Z,98333.01
2019-06-15T17:00:36.613Z,98339.77
2019-06-15T17:02:47.720Z,98340.13
2019-06-15T17:04:58.561Z,98334.13
2019-06-15T17:07:09.404Z,98339.44
2019-06-15T17:09:22.142Z,98334.43
2019-06-15T17:11:33.093Z,98331.41
2019-06-15T17:13:43.914Z,98336.21
2019-06-15T17:15:57.091Z,98337.22
2019-06-15T17:18:07.719Z,98343.69
2019-06-15T17:20:22.339Z,98352.47
2019-06-15T17:22:35.332Z,98355.34
2019-06-15T17:24:46.074Z,98350.06
2019-06-15T17:26:57.145Z,98352.92
2019-06-15T17:29:08.078Z,98352.27
2019-06-15T17:31:18.961Z,98352.64
2019-06-15T17:33:37.725Z,98349.16
2019-06-15T17:35:55.129Z,98351.31
2019-06-15T17:37:56.447Z,98348.02
2019-06-15T17:40:07.722Z,98350.50
2019-06-15T17:42:18.581Z,98344.70
2019-06-15T17:44:29.422Z,98340.56
2019-06-15T17:46:40.249Z,98337.23
2019-06-15T17:48:51.089Z,98329.78
2019-06-15T17:51:02.035Z,98333.59
2019-06-15T17:53:12.870Z,98330.30
2019-06-15T17:55:23.800Z,98335.24
2019-06-15T17:57:36.095Z,98338.59
2019-06-15T17:59:47.164Z,98340.75
2019-06-15T18:01:58.010Z,98340.77
2019-06-15T18:04:08.831Z,98338.28
2019-06-15T18:06:19.668Z,98342.25
2019-06-15T18:08:30.515Z,98334.31
2019-06-15T18:10:41.382Z,98335.33
2019-06-15T18:12:52.237Z,98330.67
2019-06-15T18:15:06.565Z,98326.88
2019-06-15T18:17:17.406Z,98325.70
2019-06-15T18:19:28.280Z,98325.70
2019-06-15T18:21:41.166Z,98312.30
2019-06-15T18:23:51.987Z,98324.89
2019-06-15T18:26:03.022Z,98318.44
2019-06-15T18:28:17.124Z,98319.75
2019-06-15T18:30:27.243Z,98315.77
2019-06-15T18:32:38.155Z,98320.26
2019-06-15T18:34:49.135Z,98322.92
2019-06-15T18:36:59.995Z,98317.97
2019-06-15T18:39:10.852Z,98311.98
2019-06-15T18:41:21.709Z,98313.45
2019-06-15T18:43:32.567Z,98316.28
2019-06-15T18:45:43.399Z,98321.39
2019-06-15T18:47:56.559Z,98319.92
2019-06-15T18:50:07.789Z,98310.48
2019-06-15T18:52:18.607Z,98316.78
2019-06-15T18:54:29.473Z,98328.34
2019-06-15T18:56:42.214Z,98333.63
2019-06-15T18:58:56.109Z,98334.45
2019-06-15T19:01:07.007Z,98320.41
2019-06-15T19:03:18.327Z,98313.44
2019-06-15T19:05:29.251Z,98319.23
2019-06-15T19:07:40.111Z,98321.38
2019-06-15T19:09:51.070Z,98320.05
2019-06-15T19:12:02.015Z,98325.66
2019-06-15T19:14:12.980Z,98317.66
2019-06-15T19:16:23.846Z,98310.00
2019-06-15T19:18:37.042Z,98305.20
2019-06-15T19:20:47.515Z,98311.30
2019-06-15T19:22:58.308Z,98312.62
2019-06-15T19:25:09.241Z,98305.66
2019-06-15T19:27:20.214Z,98301.99
2019-06-15T19:29:31.118Z,98307.22
2019-06-15T19:31:41.955Z,98313.04
2019-06-15T19:33:52.774Z,98326.67
2019-06-15T19:36:06.188Z,98326.19
2019-06-15T19:38:16.578Z,98327.40
2019-06-15T19:40:27.526Z,98320.52
2019-06-15T19:42:38.379Z,98326.53
2019-06-15T19:44:49.246Z,98330.56
2019-06-15T19:47:00.528Z,98334.59
2019-06-15T19:49:11.468Z,98339.00
2019-06-15T19:51:22.298Z,98340.55
2019-06-15T19:53:36.180Z,98340.97
2019-06-15T19:55:46.627Z,98341.64
2019-06-15T19:57:57.597Z,98336.73
2019-06-15T20:00:08.851Z,98339.17
2019-06-15T20:02:19.693Z,98346.99
2019-06-15T20:04:30.541Z,98350.20
2019-06-15T20:06:41.436Z,98355.43
2019-06-15T20:08:52.285Z,98356.75
2019-06-15T20:11:03.356Z,98355.14
2019-06-15T20:13:14.308Z,98363.83
2019-06-15T20:15:26.257Z,98371.48
2019-06-15T20:17:37.616Z,98374.55
2019-06-15T20:19:48.463Z,98377.59
2019-06-15T20:22:00.881Z,98379.56
2019-06-15T20:24:11.771Z,98380.18
2019-06-15T20:26:22.731Z,98379.52
2019-06-15T20:28:33.779Z,98373.49
2019-06-15T20:30:46.231Z,98373.20
2019-06-15T20:32:57.227Z,98363.10
2019-06-15T20:35:16.529Z,98378.84
2019-06-15T20:37:21.637Z,98385.27
2019-06-15T20:39:32.500Z,98395.75
2019-06-15T20:41:43.352Z,98409.75
2019-06-15T20:43:56.521Z,98418.35
2019-06-15T20:46:07.346Z,98430.75
2019-06-15T20:48:18.320Z,98429.53
2019-06-15T20:50:29.160Z,98424.27
2019-06-15T20:52:40.030Z,98431.52
2019-06-15T20:54:50.850Z,98433.11
2019-06-15T20:57:01.825Z,98438.03
2019-06-15T20:59:12.748Z,98438.37
2019-06-15T21:01:25.882Z,98454.66
2019-06-15T21:03:36.860Z,98463.75
2019-06-15T21:05:48.198Z,98472.86
2019-06-15T21:07:59.037Z,98484.25
2019-06-15T21:10:10.368Z,98478.70
2019-06-15T21:12:21.309Z,98478.43
2019-06-15T21:14:32.191Z,98474.89
2019-06-15T21:16:43.004Z,98483.41
2019-06-15T21:18:53.844Z,98490.88
2019-06-15T21:21:06.892Z,98497.00
2019-06-15T21:23:17.521Z,98508.36
2019-06-15T21:25:28.387Z,98513.69
2019-06-15T21:27:39.357Z,98520.06
2019-06-15T21:29:50.424Z,98527.05
2019-06-15T21:32:01.309Z,98536.70
2019-06-15T21:34:12.142Z,98534.84
2019-06-15T21:36:22.962Z,98536.31
2019-06-15T21:38:36.037Z,98536.44
2019-06-15T21:40:47.516Z,98539.83
2019-06-15T21:42:58.740Z,98544.23
2019-06-15T21:45:09.968Z,98534.45
2019-06-15T21:47:20.899Z,98539.84
2019-06-15T21:49:31.735Z,98541.30
2019-06-15T21:51:42.681Z,98552.94
2019-06-15T21:53:55.900Z,98562.55
2019-06-15T21:56:07.228Z,98568.25
2019-06-15T21:58:18.359Z,98583.75
2019-06-15T22:00:50.165Z,98590.07
2019-06-15T22:03:01.540Z,98600.02
2019-06-15T22:05:12.692Z,98607.88
2019-06-15T22:07:26.024Z,98609.84
2019-06-15T22:09:36.603Z,98607.63
2019-06-15T22:11:47.475Z,98613.42
2019-06-15T22:13:58.327Z,98615.48
2019-06-15T22:16:09.161Z,98624.52
2019-06-15T22:18:19.995Z,98633.73
2019-06-15T22:20:30.905Z,98639.33
2019-06-15T22:22:41.732Z,98649.90
2019-06-15T22:24:52.573Z,98650.65
2019-06-15T22:27:03.529Z,98656.47
2019-06-15T22:29:16.798Z,98662.93
2019-06-15T22:31:27.915Z,98674.20
2019-06-15T22:33:38.754Z,98677.70
2019-06-15T22:35:49.611Z,98675.66
2019-06-15T22:38:00.445Z,98684.08
2019-06-15T22:40:11.550Z,98686.28
2019-06-15T22:42:22.476Z,98685.22
2019-06-15T22:44:33.316Z,98686.79
2019-06-15T22:46:46.481Z,98691.97
2019-06-15T22:48:59.833Z,98686.03
2019-06-15T22:51:10.822Z,98683.30
2019-06-15T22:53:21.636Z,98672.22
2019-06-15T22:55:32.474Z,98670.08
2019-06-15T22:57:45.941Z,98668.88
2019-06-15T22:59:56.740Z,98663.41
2019-06-15T23:02:07.742Z,98661.72
2019-06-15T23:04:18.568Z,98657.73
2019-06-15T23:06:37.495Z,98661.05
2019-06-15T23:08:42.124Z,98655.02
2019-06-15T23:10:52.961Z,98653.38
2019-06-15T23:13:06.304Z,98649.38
2019-06-15T23:15:17.399Z,98649.75
2019-06-15T23:17:28.512Z,98646.96
2019-06-15T23:19:39.322Z,98642.19
2019-06-15T23:21:50.172Z,98645.32
2019-06-15T23:24:00.995Z,98637.09
2019-06-15T23:26:11.800Z,98630.04
2019-06-15T23:28:22.658Z,98621.17
2019-06-15T23:30:36.363Z,98622.00
2019-06-15T23:32:47.060Z,98644.49
2019-06-15T23:34:58.089Z,98669.95
2019-06-15T23:37:10.839Z,98685.72
2019-06-15T23:39:21.649Z,98693.30
2019-06-15T23:41:32.509Z,98691.02
2019-06-15T23:43:43.331Z,98690.81
2019-06-15T23:45:56.121Z,98683.88
2019-06-15T23:48:06.911Z,98684.59
2019-06-15T23:50:18.263Z,98690.34
2019-06-15T23:52:29.086Z,98680.89
2019-06-15T23:54:39.923Z,98682.80
2019-06-15T23:56:50.753Z,98680.89
2019-06-15T23:59:01.587Z,98684.25
